Terminal Aerodrome Forecast
Issued by NWS Blacksburg, VA

Home | Current Version | Previous Version | Text Only | Print | Product List | Glossary On
Versions: 1 2 3 4 5 6 7 8 9 10 11 12 13 14 15 16 17 18 19
000
FTUS41 KRNK 221735
TAFROA
TAF
KROA 221735Z 2218/2318 VRB03KT 2SM -SHRADZ BR OVC005
     FM222100 10004KT 3SM BR OVC003
     FM230000 09006KT 1SM BR VCSH OVC008
     FM230100 08007KT P6SM -SHRA OVC008
     FM230400 08009KT 4SM RA OVC008
     FM230600 07011G20KT 4SM RA OVC003 WS020/07040KT
     FM231200 09005KT 6SM -RA OVC003
     FM231500 10004KT P6SM -SHRA OVC015=

USA.gov is the U.S. government's official web portal to all federal, state and local government web resources and services.